createdAt,value
2022-08-18T00:01:09.674Z,99205.19
2022-08-18T00:03:56.293Z,99216.22
2022-08-18T00:06:28.346Z,99213.75
2022-08-18T00:08:57.615Z,99212.91
2022-08-18T00:11:25.051Z,99207.78
2022-08-18T00:13:52.099Z,99201.25
2022-08-18T00:16:18.934Z,99195.53
2022-08-18T00:18:46.227Z,99186.34
2022-08-18T00:21:13.240Z,99188.56
2022-08-18T00:23:42.635Z,99202.59
2022-08-18T00:26:09.726Z,99204.97
2022-08-18T00:28:37.220Z,99208.84
2022-08-18T00:31:06.186Z,99203.28
2022-08-18T00:33:33.853Z,99208.91
2022-08-18T00:36:01.111Z,99199.47
2022-08-18T00:38:28.137Z,99196.97
2022-08-18T00:40:56.944Z,99205.28
2022-08-18T00:43:35.912Z,99214.63
2022-08-18T00:46:08.283Z,99207.41
2022-08-18T00:48:36.127Z,99213.22
2022-08-18T00:51:10.544Z,99215.38
2022-08-18T00:53:44.742Z,99219.94
2022-08-18T00:56:20.599Z,99213.13
2022-08-18T00:58:55.707Z,99205.75
2022-08-18T01:01:28.387Z,99211.31
2022-08-18T01:04:03.337Z,99203.66
2022-08-18T01:06:39.145Z,99206.13
2022-08-18T01:09:07.182Z,99201.31
2022-08-18T01:11:38.334Z,99202.06
2022-08-18T01:14:08.791Z,99198.78
2022-08-18T01:16:37.010Z,99191.75
2022-08-18T01:19:06.223Z,99194.28
2022-08-18T01:21:41.815Z,99191.75
2022-08-18T01:24:13.208Z,99194.31
2022-08-18T01:26:44.330Z,99183.94
2022-08-18T01:29:18.626Z,99188.75
2022-08-18T01:31:54.537Z,99188.84
2022-08-18T01:34:25.667Z,99191.88
2022-08-18T01:36:54.618Z,99189.47
2022-08-18T01:40:59.736Z,99184.66
2022-08-18T01:42:14.065Z,99185.75
2022-08-18T01:44:41.376Z,99181.00
2022-08-18T01:47:09.749Z,99163.03
2022-08-18T01:49:37.190Z,99169.69
2022-08-18T01:52:05.108Z,99166.56
2022-08-18T01:54:33.657Z,99164.25
2022-08-18T01:57:02.351Z,99159.31
2022-08-18T01:59:29.533Z,99156.72
2022-08-18T02:01:56.423Z,99147.66
2022-08-18T02:04:35.478Z,99141.97
2022-08-18T02:07:09.117Z,99142.03
2022-08-18T02:09:40.889Z,99130.69
2022-08-18T02:12:08.888Z,99117.13
2022-08-18T02:14:37.198Z,99106.13
2022-08-18T02:17:08.802Z,99115.34
2022-08-18T02:19:39.061Z,99123.88
2022-08-18T02:22:07.843Z,99126.69
2022-08-18T02:24:35.179Z,99120.28
2022-08-18T02:27:05.031Z,99120.34
2022-08-18T02:29:32.466Z,99121.63
2022-08-18T02:31:59.446Z,99122.41
2022-08-18T02:34:26.414Z,99114.22
2022-08-18T02:36:53.439Z,99113.47
2022-08-18T02:39:20.437Z,99103.06
2022-08-18T02:41:47.686Z,99102.34
2022-08-18T02:44:16.200Z,99098.03
2022-08-18T02:46:43.292Z,99103.44
2022-08-18T02:49:10.592Z,99107.00
2022-08-18T02:51:37.556Z,99098.47
2022-08-18T02:54:04.713Z,99097.94
2022-08-18T02:56:33.685Z,99105.22
2022-08-18T02:59:12.812Z,99096.09
2022-08-18T03:01:45.444Z,99101.31
2022-08-18T03:04:16.717Z,99108.63
2022-08-18T03:06:45.422Z,99108.63
2022-08-18T03:09:16.162Z,99108.38
2022-08-18T03:11:45.074Z,99102.88
2022-08-18T03:14:13.984Z,99105.88
2022-08-18T03:16:53.703Z,99102.31
2022-08-18T03:19:24.199Z,99105.06
2022-08-18T03:21:51.708Z,99113.75
2022-08-18T03:24:22.785Z,99113.03
2022-08-18T03:26:53.751Z,99110.94
2022-08-18T03:29:21.414Z,99112.03
2022-08-18T03:31:50.307Z,99112.41
2022-08-18T03:34:19.938Z,99119.75
2022-08-18T03:36:48.144Z,99123.13
2022-08-18T03:39:15.427Z,99126.78
2022-08-18T03:41:58.193Z,99122.47
2022-08-18T03:44:29.121Z,99121.94
2022-08-18T03:46:59.405Z,99122.88
2022-08-18T03:49:26.674Z,99119.97
2022-08-18T03:51:54.068Z,99103.94
2022-08-18T03:54:21.182Z,99104.09
2022-08-18T03:56:49.458Z,99095.09
2022-08-18T03:59:20.391Z,99091.53
2022-08-18T04:01:50.704Z,99097.72
2022-08-18T04:04:22.867Z,99086.75
2022-08-18T04:06:54.212Z,99077.91
2022-08-18T04:09:24.390Z,99071.44
2022-08-18T04:11:51.927Z,99076.63
2022-08-18T04:14:21.878Z,99078.97
2022-08-18T04:16:48.992Z,99081.50
2022-08-18T04:19:26.158Z,99080.75
2022-08-18T04:21:58.099Z,99073.06
2022-08-18T04:24:28.025Z,99076.34
2022-08-18T04:26:58.926Z,99076.09
2022-08-18T04:29:28.946Z,99074.84
2022-08-18T04:31:56.324Z,99066.06
2022-08-18T04:34:24.298Z,99080.22
2022-08-18T04:36:51.659Z,99075.97
2022-08-18T04:39:21.188Z,99076.53
2022-08-18T04:41:48.927Z,99092.50
2022-08-18T04:44:16.476Z,99091.16
2022-08-18T04:46:46.539Z,99092.28
2022-08-18T04:49:15.517Z,99108.03
2022-08-18T04:52:36.865Z,99102.00
2022-08-18T04:54:34.281Z,99107.00
2022-08-18T04:57:08.569Z,99104.38
2022-08-18T04:59:36.867Z,99112.03
2022-08-18T05:02:04.770Z,99118.69
2022-08-18T05:04:32.154Z,99123.56
2022-08-18T05:06:59.032Z,99132.19
2022-08-18T05:09:26.248Z,99144.94
2022-08-18T05:11:56.789Z,99150.50
2022-08-18T05:14:24.360Z,99149.78
2022-08-18T05:16:51.223Z,99151.06
2022-08-18T05:19:23.157Z,99149.69
2022-08-18T05:21:52.214Z,99150.06
2022-08-18T05:24:20.318Z,99149.63
2022-08-18T05:26:48.222Z,99154.25
2022-08-18T05:29:19.109Z,99147.41
2022-08-18T05:31:48.537Z,99142.97
2022-08-18T05:34:16.081Z,99139.84
2022-08-18T05:37:04.787Z,99149.22
2022-08-18T05:39:43.718Z,99140.34
2022-08-18T05:42:15.844Z,99131.44
2022-08-18T05:44:48.694Z,99125.84
2022-08-18T05:47:22.043Z,99130.53
2022-08-18T05:49:51.076Z,99123.06
2022-08-18T05:52:25.684Z,99112.59
2022-08-18T05:55:00.495Z,99120.50
2022-08-18T05:57:38.041Z,99125.19
2022-08-18T06:00:08.923Z,99123.84
2022-08-18T06:02:50.668Z,99125.75
2022-08-18T06:05:25.657Z,99131.47
2022-08-18T06:07:58.761Z,99122.91
2022-08-18T06:10:26.703Z,99131.47
2022-08-18T06:12:58.769Z,99129.53
2022-08-18T06:15:40.640Z,99131.94
2022-08-18T06:18:37.628Z,99126.00
2022-08-18T06:21:25.347Z,99128.53
2022-08-18T06:24:09.130Z,99127.97
2022-08-18T06:26:54.653Z,99136.34
2022-08-18T06:29:42.919Z,99149.22
2022-08-18T06:32:24.692Z,99146.88
2022-08-18T06:35:14.342Z,99147.41
2022-08-18T06:37:54.537Z,99162.31
2022-08-18T06:40:21.795Z,99180.91
2022-08-18T06:42:48.582Z,99187.66
2022-08-18T06:45:18.702Z,99179.53
2022-08-18T06:48:01.569Z,99178.09
2022-08-18T06:50:36.393Z,99178.16
2022-08-18T06:53:08.243Z,99185.28
2022-08-18T06:55:54.208Z,99172.69
2022-08-18T06:58:27.508Z,99173.63
2022-08-18T07:01:00.162Z,99174.06
2022-08-18T07:03:45.833Z,99159.59
2022-08-18T07:06:30.505Z,99158.47
2022-08-18T07:09:21.886Z,99156.66
2022-08-18T07:12:03.186Z,99161.06
2022-08-18T07:14:30.644Z,99156.69
2022-08-18T07:17:12.179Z,99163.97
2022-08-18T07:19:41.098Z,99159.69
2022-08-18T07:22:12.759Z,99154.78
2022-08-18T07:24:43.397Z,99156.50
2022-08-18T07:27:15.138Z,99151.50
2022-08-18T07:30:02.005Z,99165.06
2022-08-18T07:32:37.635Z,99169.03
2022-08-18T07:35:10.023Z,99171.16
2022-08-18T07:37:48.315Z,99171.94
2022-08-18T07:40:27.375Z,99191.50
2022-08-18T07:43:01.133Z,99188.84
2022-08-18T07:45:36.403Z,99183.34
2022-08-18T07:48:34.861Z,99173.47
2022-08-18T07:51:12.106Z,99175.03
2022-08-18T07:53:54.801Z,99187.75
2022-08-18T07:56:38.349Z,99178.34
2022-08-18T07:59:20.022Z,99183.47
2022-08-18T08:02:00.998Z,99184.31
2022-08-18T08:04:41.020Z,99183.66
2022-08-18T08:07:25.385Z,99182.06
2022-08-18T08:10:18.671Z,99191.44
2022-08-18T08:13:08.076Z,99202.50
2022-08-18T08:15:51.589Z,99205.53
2022-08-18T08:18:31.380Z,99205.66
2022-08-18T08:21:05.224Z,99204.41
2022-08-18T08:23:47.678Z,99202.38
2022-08-18T08:26:35.144Z,99198.28
2022-08-18T08:29:22.858Z,99193.38
2022-08-18T08:32:01.082Z,99193.59
2022-08-18T08:34:40.642Z,99207.28
2022-08-18T08:37:16.617Z,99206.41
2022-08-18T08:39:54.091Z,99220.75
2022-08-18T08:42:40.202Z,99224.94
2022-08-18T08:45:15.848Z,99234.84
2022-08-18T08:48:04.393Z,99224.53
2022-08-18T08:50:45.179Z,99226.91
2022-08-18T08:53:25.268Z,99218.22
2022-08-18T08:56:02.462Z,99200.53
2022-08-18T08:58:42.614Z,99193.47
2022-08-18T09:01:22.602Z,99164.31
2022-08-18T09:04:01.725Z,99161.28
2022-08-18T09:06:47.972Z,99158.88
2022-08-18T09:09:44.205Z,99161.53
2022-08-18T09:12:49.552Z,99176.75
2022-08-18T09:15:56.218Z,99206.19
2022-08-18T09:18:46.561Z,99215.59
2022-08-18T09:21:32.122Z,99198.59
2022-08-18T09:24:21.631Z,99178.09
2022-08-18T09:27:10.963Z,99177.84
2022-08-18T09:29:52.645Z,99158.66
2022-08-18T09:32:55.659Z,99151.28
2022-08-18T09:38:52.384Z,99144.84
2022-08-18T09:41:24.759Z,99150.13
2022-08-18T09:44:00.908Z,99158.66
2022-08-18T09:50:38.131Z,99176.53
2022-08-18T09:52:57.847Z,99169.31
2022-08-18T09:58:58.288Z,99162.97
2022-08-18T10:01:41.878Z,99175.50
2022-08-18T10:04:33.137Z,99170.03
2022-08-18T10:07:35.406Z,99162.81
2022-08-18T10:11:00.877Z,99167.63
2022-08-18T10:13:24.775Z,99175.53
2022-08-18T10:16:15.463Z,99182.34
2022-08-18T10:19:16.345Z,99183.47
2022-08-18T10:22:06.456Z,99179.56
2022-08-18T10:24:41.195Z,99172.59
2022-08-18T10:27:50.252Z,99170.34
2022-08-18T10:31:12.902Z,99158.06
2022-08-18T10:34:16.531Z,99144.56
2022-08-18T10:36:58.952Z,99142.25
2022-08-18T10:39:46.261Z,99130.63
2022-08-18T10:42:31.549Z,99125.47
2022-08-18T10:45:12.245Z,99112.59
2022-08-18T10:47:59.318Z,99110.00
2022-08-18T10:50:37.232Z,99087.41
2022-08-18T10:53:39.241Z,99080.72
2022-08-18T10:56:26.498Z,99083.50
2022-08-18T10:59:16.350Z,99078.13
2022-08-18T11:02:03.339Z,99075.59
2022-08-18T11:04:38.708Z,99070.78
2022-08-18T11:07:12.456Z,99081.56
2022-08-18T11:09:50.724Z,99079.50
2022-08-18T11:13:00.893Z,99076.06
2022-08-18T11:15:54.754Z,99077.13
2022-08-18T11:18:42.613Z,99060.13
2022-08-18T11:21:30.458Z,99083.53
2022-08-18T11:24:13.491Z,99087.03
2022-08-18T11:26:45.702Z,99090.16
2022-08-18T11:29:34.963Z,99106.56
2022-08-18T11:35:07.559Z,99088.44
2022-08-18T11:46:31.975Z,99092.47
2022-08-18T11:49:12.563Z,99104.53
2022-08-18T11:51:57.706Z,99101.75
2022-08-18T11:54:50.217Z,99088.69
2022-08-18T12:00:57.199Z,99070.22
2022-08-18T12:03:50.113Z,99069.56
2022-08-18T12:06:27.220Z,99057.31
2022-08-18T12:09:01.375Z,99052.31
2022-08-18T12:11:32.104Z,99039.00
2022-08-18T12:14:31.764Z,99028.63
2022-08-18T12:16:54.165Z,99026.25
2022-08-18T12:19:24.907Z,99017.75
2022-08-18T12:21:57.657Z,99024.53
2022-08-18T12:24:36.677Z,99020.06
2022-08-18T12:29:57.504Z,99002.25
2022-08-18T12:32:46.531Z,99005.41
2022-08-18T12:35:21.665Z,98992.06
2022-08-18T12:38:12.821Z,98998.09
2022-08-18T12:40:36.296Z,98994.63
2022-08-18T12:43:05.915Z,98983.25
2022-08-18T12:45:33.155Z,98985.91
2022-08-18T12:48:00.003Z,98990.38
2022-08-18T12:50:31.260Z,98979.56
2022-08-18T12:53:00.660Z,98996.34
2022-08-18T12:55:35.995Z,98995.97
2022-08-18T12:58:10.795Z,98983.34
2022-08-18T13:00:37.823Z,98979.69
2022-08-18T13:03:04.860Z,98970.97
2022-08-18T13:05:35.528Z,98966.97
2022-08-18T13:08:08.438Z,98967.16
2022-08-18T13:10:45.420Z,98948.63
2022-08-18T13:13:16.612Z,98953.19
2022-08-18T13:15:55.374Z,98935.91
2022-08-18T13:18:27.360Z,98930.47
2022-08-18T13:20:58.460Z,98926.66
2022-08-18T13:23:26.779Z,98924.22
2022-08-18T13:26:01.474Z,98918.75
2022-08-18T13:28:33.576Z,98913.88
2022-08-18T13:31:03.969Z,98903.66
2022-08-18T13:33:57.087Z,98894.13
2022-08-18T13:36:29.541Z,98891.03
2022-08-18T13:38:56.923Z,98887.56
2022-08-18T13:41:32.707Z,98900.53
2022-08-18T13:43:59.927Z,98899.16
2022-08-18T13:46:30.027Z,98888.53
2022-08-18T13:48:58.435Z,98899.75
2022-08-18T13:51:26.627Z,98892.19
2022-08-18T13:54:15.789Z,98894.84
2022-08-18T13:56:41.171Z,98893.94
2022-08-18T13:59:20.537Z,98901.25
2022-08-18T14:01:51.809Z,98908.25
2022-08-18T14:04:22.768Z,98910.22
2022-08-18T14:06:56.988Z,98912.66
2022-08-18T14:09:30.160Z,98899.81
2022-08-18T14:12:21.636Z,98900.69
2022-08-18T14:14:52.209Z,98892.41
2022-08-18T14:17:20.015Z,98887.16
2022-08-18T14:19:50.630Z,98888.94
2022-08-18T14:22:19.167Z,98884.78
2022-08-18T14:24:48.857Z,98888.13
2022-08-18T14:27:17.051Z,98890.44
2022-08-18T14:29:46.929Z,98890.84
2022-08-18T14:32:28.402Z,98895.78
2022-08-18T14:34:59.961Z,98894.97
2022-08-18T14:37:30.475Z,98890.09
2022-08-18T14:40:01.312Z,98887.97
2022-08-18T14:42:41.010Z,98887.28
2022-08-18T14:45:26.601Z,98896.53
2022-08-18T14:47:58.667Z,98892.31
2022-08-18T14:50:26.428Z,98895.00
2022-08-18T14:52:54.881Z,98897.75
2022-08-18T14:55:23.900Z,98896.84
2022-08-18T14:57:52.372Z,98894.69
2022-08-18T15:00:22.567Z,98900.91
2022-08-18T15:02:50.272Z,98904.47
2022-08-18T15:05:19.624Z,98899.09
2022-08-18T15:07:51.584Z,98901.69
2022-08-18T15:10:23.570Z,98898.69
2022-08-18T15:12:56.338Z,98902.56
2022-08-18T15:15:24.809Z,98902.63
2022-08-18T15:17:53.015Z,98901.25
2022-08-18T15:20:27.369Z,98909.63
2022-08-18T15:23:02.017Z,98907.72
2022-08-18T15:25:32.395Z,98907.19
2022-08-18T15:27:59.244Z,98901.63
2022-08-18T15:30:26.501Z,98898.41
2022-08-18T15:32:54.164Z,98905.34
2022-08-18T15:35:23.800Z,98898.41
2022-08-18T15:37:54.317Z,98909.41
2022-08-18T15:40:35.512Z,98903.53
2022-08-18T15:43:09.711Z,98908.16
2022-08-18T15:45:43.410Z,98893.63
2022-08-18T15:48:25.816Z,98902.38
2022-08-18T15:50:53.477Z,98902.47
2022-08-18T15:53:24.342Z,98902.00
2022-08-18T15:55:51.807Z,98892.41
2022-08-18T15:58:22.415Z,98887.22
2022-08-18T16:00:54.201Z,98893.53
2022-08-18T16:03:21.307Z,98882.00
2022-08-18T16:05:53.066Z,98879.31
2022-08-18T16:08:23.343Z,98886.41
2022-08-18T16:10:52.239Z,98887.06
2022-08-18T16:13:21.982Z,98888.53
2022-08-18T16:15:49.172Z,98891.63
2022-08-18T16:18:18.670Z,98884.13
2022-08-18T16:20:45.752Z,98886.25
2022-08-18T16:23:15.537Z,98887.44
2022-08-18T16:25:43.731Z,98892.06
2022-08-18T16:28:11.458Z,98887.22
2022-08-18T16:30:41.079Z,98885.41
2022-08-18T16:33:08.515Z,98892.22
2022-08-18T16:35:38.888Z,98888.56
2022-08-18T16:38:09.206Z,98901.53
2022-08-18T16:40:37.524Z,98899.56
2022-08-18T16:43:05.154Z,98897.72
2022-08-18T16:45:32.695Z,98901.69
2022-08-18T16:48:01.814Z,98904.50
2022-08-18T16:50:29.391Z,98904.00
2022-08-18T16:52:57.826Z,98903.91
2022-08-18T16:55:24.753Z,98906.59
2022-08-18T16:57:55.199Z,98908.34
2022-08-18T17:00:24.171Z,98914.50
2022-08-18T17:02:51.532Z,98901.41
2022-08-18T17:05:19.771Z,98898.84
2022-08-18T17:07:46.655Z,98906.50
2022-08-18T17:10:13.742Z,98899.53
2022-08-18T17:12:40.597Z,98905.34
2022-08-18T17:15:09.020Z,98900.47
2022-08-18T17:17:35.835Z,98902.56
2022-08-18T17:20:07.012Z,98900.06
2022-08-18T17:22:39.450Z,98898.00
2022-08-18T17:25:11.480Z,98895.28
2022-08-18T17:27:41.206Z,98898.56
2022-08-18T17:30:16.544Z,98898.44
2022-08-18T17:32:52.782Z,98905.63
2022-08-18T17:35:28.663Z,98909.22
2022-08-18T17:38:07.054Z,98909.31
2022-08-18T17:40:42.632Z,98905.50
2022-08-18T17:43:15.470Z,98909.19
2022-08-18T17:45:44.874Z,98913.34
2022-08-18T17:48:18.570Z,98909.50
2022-08-18T17:50:53.274Z,98919.66
2022-08-18T17:53:22.594Z,98914.41
2022-08-18T17:55:57.985Z,98920.56
2022-08-18T17:58:36.794Z,98922.28
2022-08-18T18:01:04.072Z,98924.81
2022-08-18T18:03:31.107Z,98915.16
2022-08-18T18:08:54.745Z,98931.22
2022-08-18T18:11:38.742Z,98923.44
2022-08-18T18:14:25.941Z,98936.28
2022-08-18T18:17:05.579Z,98948.56
2022-08-18T18:19:33.327Z,98942.88
2022-08-18T18:22:07.956Z,98941.25
2022-08-18T18:24:47.100Z,98945.63
2022-08-18T18:27:40.591Z,98948.56
2022-08-18T18:30:28.211Z,98949.00
2022-08-18T18:32:59.920Z,98942.25
2022-08-18T18:35:30.738Z,98956.03
2022-08-18T18:38:01.780Z,98951.94
2022-08-18T18:40:38.352Z,98951.56
2022-08-18T18:43:24.173Z,98949.38
2022-08-18T18:46:27.685Z,98955.13
2022-08-18T18:49:12.463Z,98952.69
2022-08-18T18:51:54.482Z,98954.09
2022-08-18T18:54:44.032Z,98951.63
2022-08-18T18:57:27.983Z,98954.19
2022-08-18T19:00:08.953Z,98960.97
2022-08-18T19:02:53.720Z,98959.78
2022-08-18T19:05:33.318Z,98955.91
2022-08-18T19:08:12.846Z,98962.28
2022-08-18T19:10:55.062Z,98962.13
2022-08-18T19:13:33.199Z,98957.06
2022-08-18T19:16:23.557Z,98940.75
2022-08-18T19:19:36.750Z,98960.41
2022-08-18T19:22:03.235Z,98951.63
2022-08-18T19:24:42.758Z,98948.59
2022-08-18T19:27:24.865Z,98954.53
2022-08-18T19:30:00.786Z,98951.63
2022-08-18T19:32:37.815Z,98955.56
2022-08-18T19:35:12.103Z,98953.50
2022-08-18T19:38:11.872Z,98957.63
2022-08-18T19:40:48.122Z,98961.69
2022-08-18T19:43:23.994Z,98958.03
2022-08-18T19:46:01.569Z,98958.47
2022-08-18T19:48:37.877Z,98955.19
2022-08-18T19:51:12.986Z,98958.13
2022-08-18T19:54:10.718Z,98959.59
2022-08-18T19:57:10.739Z,98974.53
2022-08-18T20:00:01.645Z,98975.19
2022-08-18T20:02:50.159Z,98974.66
2022-08-18T20:05:37.500Z,98977.13
2022-08-18T20:08:48.550Z,98985.13
2022-08-18T20:11:46.570Z,98988.19
2022-08-18T20:14:17.436Z,98984.75
2022-08-18T20:17:15.687Z,98990.28
2022-08-18T20:20:12.545Z,98990.28
2022-08-18T20:22:43.114Z,98986.59
2022-08-18T20:25:44.119Z,98981.34
2022-08-18T20:28:39.983Z,98988.69
2022-08-18T20:31:14.643Z,98996.28
2022-08-18T20:33:46.574Z,98992.84
2022-08-18T20:36:27.526Z,98999.78
2022-08-18T20:38:58.708Z,99007.16
2022-08-18T20:41:45.111Z,99013.31
2022-08-18T20:44:52.058Z,99006.56
2022-08-18T20:48:01.517Z,99004.75
2022-08-18T20:50:49.858Z,99001.03
2022-08-18T20:53:57.150Z,99003.13
2022-08-18T20:56:43.286Z,98989.81
2022-08-18T20:59:20.518Z,98994.09
2022-08-18T21:02:00.919Z,98989.41
2022-08-18T21:04:46.377Z,98998.81
2022-08-18T21:07:37.438Z,98990.44
2022-08-18T21:10:20.436Z,98993.75
2022-08-18T21:12:53.458Z,98996.81
2022-08-18T21:15:22.840Z,98998.69
2022-08-18T21:17:58.491Z,98999.72
2022-08-18T21:20:27.741Z,99007.69
2022-08-18T21:23:04.758Z,99010.13
2022-08-18T21:25:33.588Z,99016.47
2022-08-18T21:28:01.586Z,99022.63
2022-08-18T21:30:28.710Z,99019.56
2022-08-18T21:32:55.824Z,99034.50
2022-08-18T21:35:29.856Z,99039.81
2022-08-18T21:38:00.807Z,99040.41
2022-08-18T21:40:39.882Z,99034.69
2022-08-18T21:43:09.058Z,99031.84
2022-08-18T21:45:47.579Z,99029.00
2022-08-18T21:48:15.343Z,99038.19
2022-08-18T21:50:51.584Z,99040.06
2022-08-18T21:53:25.294Z,99036.59
2022-08-18T21:55:58.232Z,99032.28
2022-08-18T21:58:33.648Z,99035.97
2022-08-18T22:01:18.997Z,99044.38
2022-08-18T22:03:53.715Z,99027.41
2022-08-18T22:06:36.044Z,99039.88
2022-08-18T22:09:16.319Z,99058.72
2022-08-18T22:12:00.486Z,99048.09
2022-08-18T22:14:53.765Z,99058.91
2022-08-18T22:17:31.566Z,99050.16
2022-08-18T22:20:38.722Z,99057.28
2022-08-18T22:23:24.032Z,99067.09
2022-08-18T22:25:51.102Z,99074.44
2022-08-18T22:28:24.001Z,99066.25
2022-08-18T22:30:54.332Z,99058.50
2022-08-18T22:33:21.151Z,99056.03
2022-08-18T22:35:54.482Z,99054.00
2022-08-18T22:38:21.598Z,99049.31
2022-08-18T22:40:48.815Z,99043.19
2022-08-18T22:43:15.620Z,99041.31
2022-08-18T22:45:44.371Z,99053.59
2022-08-18T22:48:11.264Z,99053.38
2022-08-18T22:50:38.155Z,99059.31
2022-08-18T22:53:05.046Z,99072.41
2022-08-18T22:55:32.039Z,99060.94
2022-08-18T22:57:59.132Z,99069.13
2022-08-18T23:00:27.503Z,99064.50
2022-08-18T23:02:56.186Z,99071.44
2022-08-18T23:05:23.943Z,99074.28
2022-08-18T23:07:51.292Z,99087.56
2022-08-18T23:10:18.525Z,99091.06
2022-08-18T23:12:48.426Z,99079.09
2022-08-18T23:15:18.101Z,99083.81
2022-08-18T23:17:44.908Z,99083.81
2022-08-18T23:20:18.375Z,99074.66
2022-08-18T23:22:47.039Z,99073.22
2022-08-18T23:25:14.404Z,99076.91
2022-08-18T23:27:41.269Z,99073.84
2022-08-18T23:30:10.382Z,99081.38
2022-08-18T23:32:37.289Z,99072.41
2022-08-18T23:35:05.277Z,99063.63
2022-08-18T23:37:33.484Z,99061.78
2022-08-18T23:40:00.418Z,99057.06
2022-08-18T23:42:27.352Z,99057.88
2022-08-18T23:44:54.847Z,99055.03
2022-08-18T23:47:21.723Z,99051.97
2022-08-18T23:49:48.631Z,99060.94
2022-08-18T23:52:15.611Z,99054.59
2022-08-18T23:54:43.818Z,99052.78
2022-08-18T23:57:10.813Z,99051.56
2022-08-18T23:59:38.278Z,99049.06
